sensor_id;sensor_type;location;lat;lon;timestamp;temperature;humidity
66013;DHT22;52783;50.502;8.190;2022-08-19T00:00:12;20.20;78.20
66013;DHT22;52783;50.502;8.190;2022-08-19T00:02:40;20.10;78.00
66013;DHT22;52783;50.502;8.190;2022-08-19T00:05:07;20.10;78.00
66013;DHT22;52783;50.502;8.190;2022-08-19T00:07:33;20.10;77.10
66013;DHT22;52783;50.502;8.190;2022-08-19T00:09:59;20.10;77.30
66013;DHT22;52783;50.502;8.190;2022-08-19T00:12:25;20.20;77.40
66013;DHT22;52783;50.502;8.190;2022-08-19T00:14:50;20.20;77.50
66013;DHT22;52783;50.502;8.190;2022-08-19T00:17:18;20.20;77.40
66013;DHT22;52783;50.502;8.190;2022-08-19T00:19:43;20.20;77.30
66013;DHT22;52783;50.502;8.190;2022-08-19T00:22:09;20.10;77.50
66013;DHT22;52783;50.502;8.190;2022-08-19T00:24:35;20.10;77.60
66013;DHT22;52783;50.502;8.190;2022-08-19T00:27:01;20.10;77.50
66013;DHT22;52783;50.502;8.190;2022-08-19T00:29:28;20.10;77.90
66013;DHT22;52783;50.502;8.190;2022-08-19T00:31:54;20.10;77.50
66013;DHT22;52783;50.502;8.190;2022-08-19T00:34:21;20.20;77.50
66013;DHT22;52783;50.502;8.190;2022-08-19T00:36:48;20.10;77.50
66013;DHT22;52783;50.502;8.190;2022-08-19T00:39:15;20.10;77.50
66013;DHT22;52783;50.502;8.190;2022-08-19T00:41:42;20.10;78.50
66013;DHT22;52783;50.502;8.190;2022-08-19T00:44:13;20.10;77.60
66013;DHT22;52783;50.502;8.190;2022-08-19T00:46:42;20.00;78.10
66013;DHT22;52783;50.502;8.190;2022-08-19T00:49:27;19.90;78.80
66013;DHT22;52783;50.502;8.190;2022-08-19T00:52:15;19.80;79.50
66013;DHT22;52783;50.502;8.190;2022-08-19T00:54:43;19.90;79.30
66013;DHT22;52783;50.502;8.190;2022-08-19T00:57:13;19.90;79.20
66013;DHT22;52783;50.502;8.190;2022-08-19T00:59:42;19.90;79.10
66013;DHT22;52783;50.502;8.190;2022-08-19T01:02:11;19.90;79.40
66013;DHT22;52783;50.502;8.190;2022-08-19T01:04:37;19.90;79.70
66013;DHT22;52783;50.502;8.190;2022-08-19T01:07:03;19.80;80.00
66013;DHT22;52783;50.502;8.190;2022-08-19T01:09:30;19.90;80.00
66013;DHT22;52783;50.502;8.190;2022-08-19T01:11:56;19.90;79.70
66013;DHT22;52783;50.502;8.190;2022-08-19T01:14:22;19.80;80.30
66013;DHT22;52783;50.502;8.190;2022-08-19T01:16:49;19.80;80.50
66013;DHT22;52783;50.502;8.190;2022-08-19T01:19:29;19.80;80.60
66013;DHT22;52783;50.502;8.190;2022-08-19T01:22:02;19.80;80.50
66013;DHT22;52783;50.502;8.190;2022-08-19T01:24:29;19.70;80.80
66013;DHT22;52783;50.502;8.190;2022-08-19T01:26:56;19.70;80.80
66013;DHT22;52783;50.502;8.190;2022-08-19T01:29:22;19.70;80.90
66013;DHT22;52783;50.502;8.190;2022-08-19T01:31:47;19.70;81.10
66013;DHT22;52783;50.502;8.190;2022-08-19T01:34:14;19.60;81.30
66013;DHT22;52783;50.502;8.190;2022-08-19T01:36:44;19.50;81.80
66013;DHT22;52783;50.502;8.190;2022-08-19T01:39:19;19.50;82.40
66013;DHT22;52783;50.502;8.190;2022-08-19T01:41:46;19.50;82.50
66013;DHT22;52783;50.502;8.190;2022-08-19T01:44:21;19.50;82.50
66013;DHT22;52783;50.502;8.190;2022-08-19T01:46:50;19.50;82.50
66013;DHT22;52783;50.502;8.190;2022-08-19T01:49:21;19.50;82.80
66013;DHT22;52783;50.502;8.190;2022-08-19T01:51:48;19.50;83.30
66013;DHT22;52783;50.502;8.190;2022-08-19T01:54:16;19.50;83.70
66013;DHT22;52783;50.502;8.190;2022-08-19T01:56:43;19.50;83.90
66013;DHT22;52783;50.502;8.190;2022-08-19T01:59:14;19.50;83.90
66013;DHT22;52783;50.502;8.190;2022-08-19T02:01:41;19.40;84.70
66013;DHT22;52783;50.502;8.190;2022-08-19T02:04:07;19.40;85.20
66013;DHT22;52783;50.502;8.190;2022-08-19T02:06:32;19.40;85.30
66013;DHT22;52783;50.502;8.190;2022-08-19T02:08:58;19.30;85.00
66013;DHT22;52783;50.502;8.190;2022-08-19T02:11:30;19.40;85.20
66013;DHT22;52783;50.502;8.190;2022-08-19T02:14:03;19.30;85.50
66013;DHT22;52783;50.502;8.190;2022-08-19T02:16:30;19.20;85.90
66013;DHT22;52783;50.502;8.190;2022-08-19T02:18:56;19.20;85.90
66013;DHT22;52783;50.502;8.190;2022-08-19T02:21:23;19.20;85.90
66013;DHT22;52783;50.502;8.190;2022-08-19T02:23:49;19.30;85.80
66013;DHT22;52783;50.502;8.190;2022-08-19T02:26:16;19.20;86.10
66013;DHT22;52783;50.502;8.190;2022-08-19T02:28:42;19.20;86.30
66013;DHT22;52783;50.502;8.190;2022-08-19T02:31:10;19.10;87.00
66013;DHT22;52783;50.502;8.190;2022-08-19T02:33:36;19.10;87.20
66013;DHT22;52783;50.502;8.190;2022-08-19T02:36:04;19.00;87.30
66013;DHT22;52783;50.502;8.190;2022-08-19T02:38:30;18.90;87.90
66013;DHT22;52783;50.502;8.190;2022-08-19T02:41:07;19.00;87.80
66013;DHT22;52783;50.502;8.190;2022-08-19T02:43:35;19.00;88.50
66013;DHT22;52783;50.502;8.190;2022-08-19T02:46:10;19.10;87.60
66013;DHT22;52783;50.502;8.190;2022-08-19T02:48:35;19.00;87.40
66013;DHT22;52783;50.502;8.190;2022-08-19T02:51:01;19.00;88.10
66013;DHT22;52783;50.502;8.190;2022-08-19T02:53:27;18.90;87.60
66013;DHT22;52783;50.502;8.190;2022-08-19T02:55:54;19.00;88.20
66013;DHT22;52783;50.502;8.190;2022-08-19T02:58:21;18.90;88.00
66013;DHT22;52783;50.502;8.190;2022-08-19T03:00:52;18.90;88.10
66013;DHT22;52783;50.502;8.190;2022-08-19T03:03:19;18.80;89.30
66013;DHT22;52783;50.502;8.190;2022-08-19T03:05:46;18.70;89.60
66013;DHT22;52783;50.502;8.190;2022-08-19T03:08:12;18.70;89.70
66013;DHT22;52783;50.502;8.190;2022-08-19T03:10:46;18.70;90.00
66013;DHT22;52783;50.502;8.190;2022-08-19T03:13:17;18.70;89.60
66013;DHT22;52783;50.502;8.190;2022-08-19T03:15:45;18.70;89.20
66013;DHT22;52783;50.502;8.190;2022-08-19T03:18:12;18.50;90.10
66013;DHT22;52783;50.502;8.190;2022-08-19T03:20:47;18.50;90.30
66013;DHT22;52783;50.502;8.190;2022-08-19T03:23:13;18.30;90.80
66013;DHT22;52783;50.502;8.190;2022-08-19T03:25:42;18.40;90.80
66013;DHT22;52783;50.502;8.190;2022-08-19T03:28:09;18.40;90.80
66013;DHT22;52783;50.502;8.190;2022-08-19T03:30:35;18.40;90.80
66013;DHT22;52783;50.502;8.190;2022-08-19T03:33:01;18.40;90.70
66013;DHT22;52783;50.502;8.190;2022-08-19T03:35:27;18.40;90.60
66013;DHT22;52783;50.502;8.190;2022-08-19T03:37:52;18.40;90.70
66013;DHT22;52783;50.502;8.190;2022-08-19T03:40:18;18.40;90.40
66013;DHT22;52783;50.502;8.190;2022-08-19T03:42:44;18.40;90.20
66013;DHT22;52783;50.502;8.190;2022-08-19T03:45:11;18.40;90.40
66013;DHT22;52783;50.502;8.190;2022-08-19T03:47:37;18.30;90.50
66013;DHT22;52783;50.502;8.190;2022-08-19T03:50:03;18.30;90.70
66013;DHT22;52783;50.502;8.190;2022-08-19T03:52:29;18.30;90.40
66013;DHT22;52783;50.502;8.190;2022-08-19T03:54:55;18.20;90.60
66013;DHT22;52783;50.502;8.190;2022-08-19T03:57:21;18.10;91.10
66013;DHT22;52783;50.502;8.190;2022-08-19T03:59:46;18.00;91.30
66013;DHT22;52783;50.502;8.190;2022-08-19T04:02:13;18.00;91.10
66013;DHT22;52783;50.502;8.190;2022-08-19T04:04:40;18.10;92.00
66013;DHT22;52783;50.502;8.190;2022-08-19T04:07:06;18.00;92.10
66013;DHT22;52783;50.502;8.190;2022-08-19T04:09:34;18.00;91.30
66013;DHT22;52783;50.502;8.190;2022-08-19T04:12:02;18.00;91.80
66013;DHT22;52783;50.502;8.190;2022-08-19T04:14:30;18.00;91.60
66013;DHT22;52783;50.502;8.190;2022-08-19T04:16:58;18.00;91.50
66013;DHT22;52783;50.502;8.190;2022-08-19T04:19:24;17.90;91.60
66013;DHT22;52783;50.502;8.190;2022-08-19T04:21:51;17.90;91.60
66013;DHT22;52783;50.502;8.190;2022-08-19T04:24:18;17.90;92.10
66013;DHT22;52783;50.502;8.190;2022-08-19T04:26:45;17.90;92.40
66013;DHT22;52783;50.502;8.190;2022-08-19T04:29:20;17.90;92.20
66013;DHT22;52783;50.502;8.190;2022-08-19T04:31:47;17.90;92.00
66013;DHT22;52783;50.502;8.190;2022-08-19T04:34:16;17.90;92.20
66013;DHT22;52783;50.502;8.190;2022-08-19T04:36:43;17.90;92.10
66013;DHT22;52783;50.502;8.190;2022-08-19T04:39:18;17.90;92.20
66013;DHT22;52783;50.502;8.190;2022-08-19T04:41:44;17.90;92.20
66013;DHT22;52783;50.502;8.190;2022-08-19T04:44:31;17.80;92.40
66013;DHT22;52783;50.502;8.190;2022-08-19T04:46:58;17.90;92.40
66013;DHT22;52783;50.502;8.190;2022-08-19T04:49:23;17.90;92.00
66013;DHT22;52783;50.502;8.190;2022-08-19T04:51:50;17.90;92.40
66013;DHT22;52783;50.502;8.190;2022-08-19T04:54:19;17.90;92.60
66013;DHT22;52783;50.502;8.190;2022-08-19T04:56:53;17.90;92.70
66013;DHT22;52783;50.502;8.190;2022-08-19T04:59:20;18.00;92.30
66013;DHT22;52783;50.502;8.190;2022-08-19T05:01:46;18.00;92.20
66013;DHT22;52783;50.502;8.190;2022-08-19T05:04:18;18.00;92.20
66013;DHT22;52783;50.502;8.190;2022-08-19T05:06:45;18.10;92.10
66013;DHT22;52783;50.502;8.190;2022-08-19T05:09:12;18.20;91.80
66013;DHT22;52783;50.502;8.190;2022-08-19T05:11:38;18.30;91.60
66013;DHT22;52783;50.502;8.190;2022-08-19T05:14:05;18.30;91.50
66013;DHT22;52783;50.502;8.190;2022-08-19T05:16:31;18.40;91.70
66013;DHT22;52783;50.502;8.190;2022-08-19T05:18:56;18.10;91.60
66013;DHT22;52783;50.502;8.190;2022-08-19T05:21:41;18.20;91.80
66013;DHT22;52783;50.502;8.190;2022-08-19T05:24:26;18.10;91.60
66013;DHT22;52783;50.502;8.190;2022-08-19T05:26:53;18.20;91.30
66013;DHT22;52783;50.502;8.190;2022-08-19T05:29:22;18.20;91.50
66013;DHT22;52783;50.502;8.190;2022-08-19T05:31:49;18.40;91.20
66013;DHT22;52783;50.502;8.190;2022-08-19T05:34:17;18.60;90.80
66013;DHT22;52783;50.502;8.190;2022-08-19T05:36:44;18.70;90.50
66013;DHT22;52783;50.502;8.190;2022-08-19T05:39:18;18.90;90.00
66013;DHT22;52783;50.502;8.190;2022-08-19T05:41:46;19.20;88.70
66013;DHT22;52783;50.502;8.190;2022-08-19T05:44:13;19.10;87.70
66013;DHT22;52783;50.502;8.190;2022-08-19T05:46:39;19.30;87.30
66013;DHT22;52783;50.502;8.190;2022-08-19T05:49:06;19.30;87.90
66013;DHT22;52783;50.502;8.190;2022-08-19T05:51:33;19.50;86.40
66013;DHT22;52783;50.502;8.190;2022-08-19T05:54:00;19.60;85.70
66013;DHT22;52783;50.502;8.190;2022-08-19T05:56:26;19.70;85.20
66013;DHT22;52783;50.502;8.190;2022-08-19T05:58:51;19.80;84.40
66013;DHT22;52783;50.502;8.190;2022-08-19T06:01:19;20.10;83.60
66013;DHT22;52783;50.502;8.190;2022-08-19T06:03:45;20.40;82.50
66013;DHT22;52783;50.502;8.190;2022-08-19T06:06:14;20.40;81.30
66013;DHT22;52783;50.502;8.190;2022-08-19T06:08:40;20.60;81.10
66013;DHT22;52783;50.502;8.190;2022-08-19T06:11:18;20.50;81.00
66013;DHT22;52783;50.502;8.190;2022-08-19T06:13:45;20.70;79.60
66013;DHT22;52783;50.502;8.190;2022-08-19T06:16:13;20.90;79.60
66013;DHT22;52783;50.502;8.190;2022-08-19T06:18:45;21.20;78.20
66013;DHT22;52783;50.502;8.190;2022-08-19T06:21:11;21.00;77.70
66013;DHT22;52783;50.502;8.190;2022-08-19T06:23:37;21.50;76.60
66013;DHT22;52783;50.502;8.190;2022-08-19T06:26:03;21.60;75.80
66013;DHT22;52783;50.502;8.190;2022-08-19T06:28:29;21.90;74.70
66013;DHT22;52783;50.502;8.190;2022-08-19T06:30:54;22.20;74.00
66013;DHT22;52783;50.502;8.190;2022-08-19T06:33:20;22.40;73.20
66013;DHT22;52783;50.502;8.190;2022-08-19T06:35:46;22.00;73.50
66013;DHT22;52783;50.502;8.190;2022-08-19T06:38:11;22.10;73.70
66013;DHT22;52783;50.502;8.190;2022-08-19T06:40:37;21.80;73.70
66013;DHT22;52783;50.502;8.190;2022-08-19T06:43:03;22.20;73.20
66013;DHT22;52783;50.502;8.190;2022-08-19T06:45:29;22.50;71.90
66013;DHT22;52783;50.502;8.190;2022-08-19T06:47:55;22.80;71.20
66013;DHT22;52783;50.502;8.190;2022-08-19T06:50:22;23.10;70.60
66013;DHT22;52783;50.502;8.190;2022-08-19T06:52:48;23.20;69.30
66013;DHT22;52783;50.502;8.190;2022-08-19T06:55:14;23.20;69.40
66013;DHT22;52783;50.502;8.190;2022-08-19T06:57:42;23.40;69.00
66013;DHT22;52783;50.502;8.190;2022-08-19T07:00:09;23.60;68.10
66013;DHT22;52783;50.502;8.190;2022-08-19T07:02:41;23.70;67.50
66013;DHT22;52783;50.502;8.190;2022-08-19T07:05:07;23.50;66.70
66013;DHT22;52783;50.502;8.190;2022-08-19T07:07:33;23.60;67.00
66013;DHT22;52783;50.502;8.190;2022-08-19T07:10:00;24.10;66.30
66013;DHT22;52783;50.502;8.190;2022-08-19T07:12:27;24.40;65.50
66013;DHT22;52783;50.502;8.190;2022-08-19T07:14:53;24.50;65.20
66013;DHT22;52783;50.502;8.190;2022-08-19T07:17:18;24.40;64.80
66013;DHT22;52783;50.502;8.190;2022-08-19T07:19:45;24.50;63.90
66013;DHT22;52783;50.502;8.190;2022-08-19T07:22:11;24.60;64.40
66013;DHT22;52783;50.502;8.190;2022-08-19T07:24:38;25.00;62.30
66013;DHT22;52783;50.502;8.190;2022-08-19T07:27:05;25.10;62.10
66013;DHT22;52783;50.502;8.190;2022-08-19T07:29:33;25.70;61.70
66013;DHT22;52783;50.502;8.190;2022-08-19T07:32:00;26.00;58.30
66013;DHT22;52783;50.502;8.190;2022-08-19T07:34:28;26.60;56.60
66013;DHT22;52783;50.502;8.190;2022-08-19T07:36:54;26.70;55.80
66013;DHT22;52783;50.502;8.190;2022-08-19T07:39:24;27.20;55.90
66013;DHT22;52783;50.502;8.190;2022-08-19T07:41:51;27.00;54.20
66013;DHT22;52783;50.502;8.190;2022-08-19T07:44:18;26.90;54.00
66013;DHT22;52783;50.502;8.190;2022-08-19T07:46:48;27.80;52.40
66013;DHT22;52783;50.502;8.190;2022-08-19T07:49:14;28.20;50.80
66013;DHT22;52783;50.502;8.190;2022-08-19T07:51:59;28.20;51.00
66013;DHT22;52783;50.502;8.190;2022-08-19T07:54:27;28.30;50.30
66013;DHT22;52783;50.502;8.190;2022-08-19T07:56:54;27.50;51.20
66013;DHT22;52783;50.502;8.190;2022-08-19T07:59:20;28.00;51.00
66013;DHT22;52783;50.502;8.190;2022-08-19T08:01:46;28.50;50.20
66013;DHT22;52783;50.502;8.190;2022-08-19T08:04:13;28.80;47.50
66013;DHT22;52783;50.502;8.190;2022-08-19T08:06:57;28.50;47.60
66013;DHT22;52783;50.502;8.190;2022-08-19T08:09:43;29.70;47.00
66013;DHT22;52783;50.502;8.190;2022-08-19T08:12:14;30.20;44.60
66013;DHT22;52783;50.502;8.190;2022-08-19T08:14:47;29.20;45.20
66013;DHT22;52783;50.502;8.190;2022-08-19T08:17:17;28.10;47.80
66013;DHT22;52783;50.502;8.190;2022-08-19T08:19:44;27.10;50.30
66013;DHT22;52783;50.502;8.190;2022-08-19T08:22:13;26.80;52.80
66013;DHT22;52783;50.502;8.190;2022-08-19T08:25:01;27.20;51.40
66013;DHT22;52783;50.502;8.190;2022-08-19T08:27:27;27.00;52.10
66013;DHT22;52783;50.502;8.190;2022-08-19T08:29:54;26.50;53.50
66013;DHT22;52783;50.502;8.190;2022-08-19T08:32:20;27.00;52.90
66013;DHT22;52783;50.502;8.190;2022-08-19T08:34:45;26.20;53.60
66013;DHT22;52783;50.502;8.190;2022-08-19T08:37:11;26.40;55.10
66013;DHT22;52783;50.502;8.190;2022-08-19T08:39:36;26.80;53.90
66013;DHT22;52783;50.502;8.190;2022-08-19T08:44:47;26.50;52.40
66013;DHT22;52783;50.502;8.190;2022-08-19T08:47:18;26.60;52.80
66013;DHT22;52783;50.502;8.190;2022-08-19T08:49:51;26.90;50.70
66013;DHT22;52783;50.502;8.190;2022-08-19T08:52:25;27.30;49.30
66013;DHT22;52783;50.502;8.190;2022-08-19T08:54:54;27.50;49.90
66013;DHT22;52783;50.502;8.190;2022-08-19T08:57:30;27.10;51.00
66013;DHT22;52783;50.502;8.190;2022-08-19T08:59:59;27.20;51.00
66013;DHT22;52783;50.502;8.190;2022-08-19T09:02:26;27.00;51.40
66013;DHT22;52783;50.502;8.190;2022-08-19T09:04:54;26.50;52.20
66013;DHT22;52783;50.502;8.190;2022-08-19T09:10:49;27.20;51.40
66013;DHT22;52783;50.502;8.190;2022-08-19T09:13:25;27.60;50.00
66013;DHT22;52783;50.502;8.190;2022-08-19T09:16:06;26.80;49.50
66013;DHT22;52783;50.502;8.190;2022-08-19T09:21:07;26.90;51.10
66013;DHT22;52783;50.502;8.190;2022-08-19T09:23:35;26.90;49.50
66013;DHT22;52783;50.502;8.190;2022-08-19T09:26:01;26.50;50.90
66013;DHT22;52783;50.502;8.190;2022-08-19T09:28:26;26.30;51.10
66013;DHT22;52783;50.502;8.190;2022-08-19T09:30:53;26.30;51.70
66013;DHT22;52783;50.502;8.190;2022-08-19T09:33:18;26.50;51.70
66013;DHT22;52783;50.502;8.190;2022-08-19T09:35:44;26.40;50.80
66013;DHT22;52783;50.502;8.190;2022-08-19T09:38:10;26.30;51.10
66013;DHT22;52783;50.502;8.190;2022-08-19T09:40:35;27.00;49.80
66013;DHT22;52783;50.502;8.190;2022-08-19T09:43:01;26.80;49.00
66013;DHT22;52783;50.502;8.190;2022-08-19T09:45:28;26.50;47.80
66013;DHT22;52783;50.502;8.190;2022-08-19T09:47:53;26.20;48.80
66013;DHT22;52783;50.502;8.190;2022-08-19T09:50:19;26.80;48.20
66013;DHT22;52783;50.502;8.190;2022-08-19T09:52:45;26.50;47.60
66013;DHT22;52783;50.502;8.190;2022-08-19T09:55:11;26.60;47.80
66013;DHT22;52783;50.502;8.190;2022-08-19T09:57:37;27.00;46.10
66013;DHT22;52783;50.502;8.190;2022-08-19T10:00:06;27.20;45.40
66013;DHT22;52783;50.502;8.190;2022-08-19T10:02:33;27.80;43.90
66013;DHT22;52783;50.502;8.190;2022-08-19T10:04:59;27.60;42.80
66013;DHT22;52783;50.502;8.190;2022-08-19T10:07:43;27.70;44.10
66013;DHT22;52783;50.502;8.190;2022-08-19T10:10:09;26.90;45.60
66013;DHT22;52783;50.502;8.190;2022-08-19T10:12:35;26.50;46.30
66013;DHT22;52783;50.502;8.190;2022-08-19T10:15:02;27.00;46.40
66013;DHT22;52783;50.502;8.190;2022-08-19T10:17:28;26.70;45.20
66013;DHT22;52783;50.502;8.190;2022-08-19T10:19:54;26.80;46.00
66013;DHT22;52783;50.502;8.190;2022-08-19T10:22:20;26.60;46.10
66013;DHT22;52783;50.502;8.190;2022-08-19T10:24:46;26.60;46.50
66013;DHT22;52783;50.502;8.190;2022-08-19T10:27:12;26.30;46.30
66013;DHT22;52783;50.502;8.190;2022-08-19T10:29:39;26.20;46.30
66013;DHT22;52783;50.502;8.190;2022-08-19T10:32:06;26.50;46.00
66013;DHT22;52783;50.502;8.190;2022-08-19T10:34:32;26.50;44.10
66013;DHT22;52783;50.502;8.190;2022-08-19T10:36:59;26.50;44.20
66013;DHT22;52783;50.502;8.190;2022-08-19T10:39:26;26.20;43.80
66013;DHT22;52783;50.502;8.190;2022-08-19T10:41:55;26.20;44.50
66013;DHT22;52783;50.502;8.190;2022-08-19T10:44:22;26.40;44.80
66013;DHT22;52783;50.502;8.190;2022-08-19T10:46:48;26.60;43.20
66013;DHT22;52783;50.502;8.190;2022-08-19T10:49:14;26.50;44.50
66013;DHT22;52783;50.502;8.190;2022-08-19T10:51:40;26.70;44.50
66013;DHT22;52783;50.502;8.190;2022-08-19T10:54:25;26.60;41.30
66013;DHT22;52783;50.502;8.190;2022-08-19T10:57:10;26.10;43.40
66013;DHT22;52783;50.502;8.190;2022-08-19T10:59:36;26.60;43.30
66013;DHT22;52783;50.502;8.190;2022-08-19T11:02:04;26.60;42.80
66013;DHT22;52783;50.502;8.190;2022-08-19T11:04:30;26.40;42.30
66013;DHT22;52783;50.502;8.190;2022-08-19T11:06:57;26.60;41.80
66013;DHT22;52783;50.502;8.190;2022-08-19T11:09:24;26.70;41.30
66013;DHT22;52783;50.502;8.190;2022-08-19T11:11:52;27.00;42.10
66013;DHT22;52783;50.502;8.190;2022-08-19T11:14:18;27.30;43.20
66013;DHT22;52783;50.502;8.190;2022-08-19T11:16:49;27.30;43.90
66013;DHT22;52783;50.502;8.190;2022-08-19T11:19:15;26.60;42.90
66013;DHT22;52783;50.502;8.190;2022-08-19T11:21:45;26.40;44.20
66013;DHT22;52783;50.502;8.190;2022-08-19T11:24:17;26.00;43.50
66013;DHT22;52783;50.502;8.190;2022-08-19T11:26:44;26.20;42.90
66013;DHT22;52783;50.502;8.190;2022-08-19T11:29:11;26.20;43.40
66013;DHT22;52783;50.502;8.190;2022-08-19T11:31:41;26.20;43.40
66013;DHT22;52783;50.502;8.190;2022-08-19T11:34:09;26.20;43.70
66013;DHT22;52783;50.502;8.190;2022-08-19T11:36:39;25.90;43.60
66013;DHT22;52783;50.502;8.190;2022-08-19T11:39:06;26.00;43.30
66013;DHT22;52783;50.502;8.190;2022-08-19T11:41:32;26.30;42.60
66013;DHT22;52783;50.502;8.190;2022-08-19T11:43:58;26.70;40.00
66013;DHT22;52783;50.502;8.190;2022-08-19T11:46:25;26.60;40.70
66013;DHT22;52783;50.502;8.190;2022-08-19T11:48:55;26.30;40.60
66013;DHT22;52783;50.502;8.190;2022-08-19T11:51:22;26.80;41.30
66013;DHT22;52783;50.502;8.190;2022-08-19T11:53:50;27.40;41.40
66013;DHT22;52783;50.502;8.190;2022-08-19T11:56:17;27.50;41.70
66013;DHT22;52783;50.502;8.190;2022-08-19T11:58:42;27.70;40.90
66013;DHT22;52783;50.502;8.190;2022-08-19T12:01:10;27.50;40.60
66013;DHT22;52783;50.502;8.190;2022-08-19T12:03:37;27.50;39.50
66013;DHT22;52783;50.502;8.190;2022-08-19T12:06:09;27.40;39.00
66013;DHT22;52783;50.502;8.190;2022-08-19T12:08:37;27.50;37.90
66013;DHT22;52783;50.502;8.190;2022-08-19T12:11:02;27.40;38.90
66013;DHT22;52783;50.502;8.190;2022-08-19T12:13:29;27.10;39.20
66013;DHT22;52783;50.502;8.190;2022-08-19T12:15:55;27.60;40.20
66013;DHT22;52783;50.502;8.190;2022-08-19T12:18:21;28.00;40.20
66013;DHT22;52783;50.502;8.190;2022-08-19T12:20:46;28.10;39.10
66013;DHT22;52783;50.502;8.190;2022-08-19T12:23:13;28.00;39.50
66013;DHT22;52783;50.502;8.190;2022-08-19T12:25:45;28.10;40.10
66013;DHT22;52783;50.502;8.190;2022-08-19T12:28:21;28.30;39.10
66013;DHT22;52783;50.502;8.190;2022-08-19T12:30:48;28.30;39.30
66013;DHT22;52783;50.502;8.190;2022-08-19T12:33:15;28.10;38.10
66013;DHT22;52783;50.502;8.190;2022-08-19T12:35:42;28.20;37.50
66013;DHT22;52783;50.502;8.190;2022-08-19T12:38:09;28.10;37.10
66013;DHT22;52783;50.502;8.190;2022-08-19T12:40:35;27.80;38.30
66013;DHT22;52783;50.502;8.190;2022-08-19T12:43:01;27.80;39.20
66013;DHT22;52783;50.502;8.190;2022-08-19T12:45:26;28.10;37.80
66013;DHT22;52783;50.502;8.190;2022-08-19T12:47:52;28.20;37.60
66013;DHT22;52783;50.502;8.190;2022-08-19T12:50:18;27.90;37.90
66013;DHT22;52783;50.502;8.190;2022-08-19T12:52:47;28.00;36.70
66013;DHT22;52783;50.502;8.190;2022-08-19T12:55:14;27.90;35.60
66013;DHT22;52783;50.502;8.190;2022-08-19T12:57:40;27.90;37.20
66013;DHT22;52783;50.502;8.190;2022-08-19T13:00:09;27.70;37.50
66013;DHT22;52783;50.502;8.190;2022-08-19T13:02:38;27.70;37.70
66013;DHT22;52783;50.502;8.190;2022-08-19T13:05:05;27.80;38.20
66013;DHT22;52783;50.502;8.190;2022-08-19T13:07:32;28.00;38.00
66013;DHT22;52783;50.502;8.190;2022-08-19T13:09:58;28.00;37.80
66013;DHT22;52783;50.502;8.190;2022-08-19T13:12:23;27.80;36.00
66013;DHT22;52783;50.502;8.190;2022-08-19T13:14:52;27.90;36.40
66013;DHT22;52783;50.502;8.190;2022-08-19T13:17:18;27.50;36.30
66013;DHT22;52783;50.502;8.190;2022-08-19T13:19:44;27.60;37.70
66013;DHT22;52783;50.502;8.190;2022-08-19T13:22:09;27.90;37.90
66013;DHT22;52783;50.502;8.190;2022-08-19T13:24:35;27.90;38.40
66013;DHT22;52783;50.502;8.190;2022-08-19T13:27:02;27.70;38.30
66013;DHT22;52783;50.502;8.190;2022-08-19T13:29:27;27.90;37.90
66013;DHT22;52783;50.502;8.190;2022-08-19T13:32:11;28.20;37.10
66013;DHT22;52783;50.502;8.190;2022-08-19T13:34:56;28.00;37.00
66013;DHT22;52783;50.502;8.190;2022-08-19T13:37:21;27.80;37.80
66013;DHT22;52783;50.502;8.190;2022-08-19T13:40:09;27.90;37.70
66013;DHT22;52783;50.502;8.190;2022-08-19T13:42:40;27.70;37.60
66013;DHT22;52783;50.502;8.190;2022-08-19T13:45:07;27.70;37.70
66013;DHT22;52783;50.502;8.190;2022-08-19T13:47:34;27.70;36.10
66013;DHT22;52783;50.502;8.190;2022-08-19T13:50:03;27.50;36.90
66013;DHT22;52783;50.502;8.190;2022-08-19T13:52:29;27.50;34.40
66013;DHT22;52783;50.502;8.190;2022-08-19T13:54:54;27.70;34.30
66013;DHT22;52783;50.502;8.190;2022-08-19T13:57:22;27.60;34.50
66013;DHT22;52783;50.502;8.190;2022-08-19T13:59:47;27.40;35.20
66013;DHT22;52783;50.502;8.190;2022-08-19T14:02:13;27.30;36.10
66013;DHT22;52783;50.502;8.190;2022-08-19T14:04:38;27.40;36.50
66013;DHT22;52783;50.502;8.190;2022-08-19T14:07:04;27.70;36.80
66013;DHT22;52783;50.502;8.190;2022-08-19T14:09:30;27.80;36.50
66013;DHT22;52783;50.502;8.190;2022-08-19T14:11:56;27.80;35.30
66013;DHT22;52783;50.502;8.190;2022-08-19T14:14:21;27.60;35.80
66013;DHT22;52783;50.502;8.190;2022-08-19T14:16:48;27.80;36.30
66013;DHT22;52783;50.502;8.190;2022-08-19T14:19:14;28.10;35.00
66013;DHT22;52783;50.502;8.190;2022-08-19T14:21:40;27.90;34.60
66013;DHT22;52783;50.502;8.190;2022-08-19T14:24:06;27.90;34.00
66013;DHT22;52783;50.502;8.190;2022-08-19T14:26:33;28.00;34.50
66013;DHT22;52783;50.502;8.190;2022-08-19T14:28:59;28.10;34.40
66013;DHT22;52783;50.502;8.190;2022-08-19T14:31:24;28.00;35.30
66013;DHT22;52783;50.502;8.190;2022-08-19T14:33:51;27.70;35.50
66013;DHT22;52783;50.502;8.190;2022-08-19T14:36:18;27.70;35.60
66013;DHT22;52783;50.502;8.190;2022-08-19T14:38:44;27.50;35.60
66013;DHT22;52783;50.502;8.190;2022-08-19T14:41:19;27.70;36.70
66013;DHT22;52783;50.502;8.190;2022-08-19T14:43:48;27.80;36.80
66013;DHT22;52783;50.502;8.190;2022-08-19T14:46:21;27.90;36.40
66013;DHT22;52783;50.502;8.190;2022-08-19T14:48:47;28.00;36.40
66013;DHT22;52783;50.502;8.190;2022-08-19T14:51:13;28.30;37.10
66013;DHT22;52783;50.502;8.190;2022-08-19T14:53:40;28.40;35.90
66013;DHT22;52783;50.502;8.190;2022-08-19T14:56:15;28.30;36.30
66013;DHT22;52783;50.502;8.190;2022-08-19T14:58:42;27.60;36.70
66013;DHT22;52783;50.502;8.190;2022-08-19T15:01:12;27.60;37.40
66013;DHT22;52783;50.502;8.190;2022-08-19T15:03:41;27.90;36.80
66013;DHT22;52783;50.502;8.190;2022-08-19T15:06:08;28.00;35.90
66013;DHT22;52783;50.502;8.190;2022-08-19T15:08:35;27.80;35.30
66013;DHT22;52783;50.502;8.190;2022-08-19T15:11:03;27.90;35.50
66013;DHT22;52783;50.502;8.190;2022-08-19T15:13:32;28.00;35.70
66013;DHT22;52783;50.502;8.190;2022-08-19T15:15:58;27.90;36.00
66013;DHT22;52783;50.502;8.190;2022-08-19T15:18:23;28.00;35.20
66013;DHT22;52783;50.502;8.190;2022-08-19T15:20:50;28.10;35.50
66013;DHT22;52783;50.502;8.190;2022-08-19T15:23:17;28.30;35.20
66013;DHT22;52783;50.502;8.190;2022-08-19T15:25:43;28.40;35.10
66013;DHT22;52783;50.502;8.190;2022-08-19T15:28:10;28.40;34.30
66013;DHT22;52783;50.502;8.190;2022-08-19T15:30:41;28.50;34.20
66013;DHT22;52783;50.502;8.190;2022-08-19T15:33:10;28.50;33.70
66013;DHT22;52783;50.502;8.190;2022-08-19T15:35:36;28.50;33.80
66013;DHT22;52783;50.502;8.190;2022-08-19T15:38:03;28.10;33.60
66013;DHT22;52783;50.502;8.190;2022-08-19T15:40:30;28.00;34.30
66013;DHT22;52783;50.502;8.190;2022-08-19T15:42:56;28.10;34.10